Time;durP1;ratioP1;P1;durP2;ratioP2;P2;SDS_P1;SDS_P2;PMS_P1;PMS_P2;Temp;Humidity;BMP_temperature;BMP_pressure;BME280_temperature;BME280_humidity;BME280_pressure;Samples;Min_cycle;Max_cycle;Signal;HPM_P1;HPM_P2
2022/05/29 00:00:56;;;;;;;2.60;1.70;;;;;;;14.90;76.59;95746.31;5031969;28;20210;-83
2022/05/29 00:03:24;;;;;;;2.40;1.70;;;;;;;14.90;77.78;95746.31;5042120;28;20216;-81
2022/05/29 00:05:52;;;;;;;4.63;1.80;;;;;;;14.89;78.02;95739.25;5041119;28;20206;-81
2022/05/29 00:08:25;;;;;;;5.53;2.47;;;;;;;14.88;78.78;95740.34;5038344;28;20210;-83
2022/05/29 00:10:53;;;;;;;5.17;2.30;;;;;;;14.82;78.31;95727.84;5040385;28;20232;-83
2022/05/29 00:13:20;;;;;;;3.30;2.07;;;;;;;14.72;78.31;95731.34;5051676;28;20202;-82
2022/05/29 00:15:48;;;;;;;4.37;1.80;;;;;;;14.64;79.12;95726.47;5038697;28;20292;-81
2022/05/29 00:18:15;;;;;;;3.53;1.70;;;;;;;14.66;80.01;95718.06;5039832;28;20393;-81
2022/05/29 00:20:45;;;;;;;3.13;1.73;;;;;;;14.73;78.91;95724.84;5039060;28;20211;-81
2022/05/29 00:23:13;;;;;;;3.57;1.87;;;;;;;14.72;78.12;95715.06;5037378;28;20231;-82
2022/05/29 00:25:49;;;;;;;5.20;2.17;;;;;;;14.77;76.57;95708.81;5053535;28;20324;-82
2022/05/29 00:28:17;;;;;;;3.27;2.17;;;;;;;14.74;78.08;95703.91;5041780;28;20209;-81
2022/05/29 00:30:45;;;;;;;3.33;1.93;;;;;;;14.73;79.16;95707.72;5053070;28;20217;-82
2022/05/29 00:33:12;;;;;;;5.57;2.33;;;;;;;14.73;79.84;95710.44;5040273;28;20214;-82
2022/05/29 00:35:40;;;;;;;3.57;2.20;;;;;;;14.73;80.18;95705.00;5030328;28;20214;-83
2022/05/29 00:38:09;;;;;;;2.00;1.53;;;;;;;14.74;80.97;95698.47;5048879;28;20214;-82
2022/05/29 00:40:44;;;;;;;2.70;1.97;;;;;;;14.78;79.72;95694.16;5043309;28;20202;-82
2022/05/29 00:43:11;;;;;;;2.93;1.87;;;;;;;14.79;80.65;95684.09;5032164;28;20287;-83
2022/05/29 00:45:45;;;;;;;3.00;2.10;;;;;;;14.68;81.02;95677.84;5053898;28;20215;-85
2022/05/29 00:48:15;;;;;;;3.47;1.50;;;;;;;14.64;82.41;95674.03;5035952;28;20277;-82
2022/05/29 00:50:43;;;;;;;2.50;1.50;;;;;;;14.60;81.41;95672.94;5032018;28;20285;-82
2022/05/29 00:53:10;;;;;;;2.67;1.63;;;;;;;14.52;82.29;95673.50;5031523;28;20212;-81
2022/05/29 00:55:39;;;;;;;5.03;1.80;;;;;;;14.39;81.85;95670.22;5032118;28;20207;-83
2022/05/29 00:58:06;;;;;;;1.93;1.73;;;;;;;14.36;81.75;95665.31;5041171;28;20295;-82
2022/05/29 01:00:34;;;;;;;2.90;1.80;;;;;;;14.38;82.51;95662.31;5042481;28;20226;-82
2022/05/29 01:03:04;;;;;;;2.13;1.70;;;;;;;14.44;82.70;95668.59;5035653;28;20238;-81
2022/05/29 01:05:34;;;;;;;1.97;1.60;;;;;;;14.34;82.43;95658.50;5056987;28;20194;-81
2022/05/29 01:08:07;;;;;;;2.33;1.87;;;;;;;14.36;83.18;95662.59;5032315;28;20210;-82
2022/05/29 01:10:47;;;;;;;3.60;1.77;;;;;;;14.44;83.97;95657.75;5038306;28;20242;-82
2022/05/29 01:13:26;;;;;;;5.27;1.73;;;;;;;14.46;82.67;95661.00;5041609;28;20205;-82
2022/05/29 01:16:00;;;;;;;4.13;2.30;;;;;;;14.40;82.55;95649.31;5039130;28;20235;-82
2022/05/29 01:18:35;;;;;;;2.87;1.80;;;;;;;14.38;79.79;95649.56;5030075;28;20264;-82
2022/05/29 01:21:22;;;;;;;3.20;1.63;;;;;;;14.48;76.41;95647.94;5029475;28;20275;-81
2022/05/29 01:24:08;;;;;;;3.67;1.90;;;;;;;14.49;73.85;95642.25;5036443;28;20307;-81
2022/05/29 01:27:04;;;;;;;4.10;1.50;;;;;;;14.58;74.29;95639.81;5034778;28;20302;-82
2022/05/29 01:29:40;;;;;;;3.17;1.47;;;;;;;14.63;74.29;95631.66;5034471;28;20334;-82
2022/05/29 01:32:13;;;;;;;2.33;1.60;;;;;;;14.65;74.20;95634.91;5039871;28;20275;-81
2022/05/29 01:34:45;;;;;;;3.10;1.90;;;;;;;14.66;72.52;95629.19;5041636;28;20210;-82
2022/05/29 01:37:17;;;;;;;3.20;1.63;;;;;;;14.80;70.98;95629.44;5029364;28;20210;-82
2022/05/29 01:39:52;;;;;;;3.13;1.67;;;;;;;14.73;71.67;95628.91;5040710;28;20234;-81
2022/05/29 01:42:26;;;;;;;2.17;1.43;;;;;;;14.79;70.56;95630.56;5036381;28;20220;-83
2022/05/29 01:45:00;;;;;;;2.30;1.40;;;;;;;14.77;71.77;95632.72;5038637;28;20225;-81
2022/05/29 01:47:34;;;;;;;2.90;1.57;;;;;;;14.77;71.35;95622.69;5054576;28;20210;-80
2022/05/29 01:50:06;;;;;;;3.90;1.50;;;;;;;14.76;71.57;95614.78;5042091;28;20478;-82
2022/05/29 01:52:39;;;;;;;2.70;1.60;;;;;;;14.75;72.90;95613.16;5036390;28;20283;-82
2022/05/29 01:55:12;;;;;;;3.93;1.40;;;;;;;14.71;74.36;95607.47;5040621;28;20206;-81
2022/05/29 01:57:44;;;;;;;3.70;1.77;;;;;;;14.64;76.39;95609.63;5033446;28;20286;-81
2022/05/29 02:00:17;;;;;;;3.53;2.10;;;;;;;14.57;77.24;95600.94;5037281;28;20284;-82
2022/05/29 02:02:49;;;;;;;2.60;1.57;;;;;;;14.53;76.69;95593.63;5038110;28;20348;-82
2022/05/29 02:05:20;;;;;;;5.53;2.03;;;;;;;14.53;76.49;95591.75;5039243;28;20234;-84
2022/05/29 02:07:50;;;;;;;4.33;1.70;;;;;;;14.54;75.46;95595.28;5039335;28;20264;-82
2022/05/29 02:10:28;;;;;;;3.10;1.57;;;;;;;14.51;75.24;95582.22;5031621;28;20233;-83
2022/05/29 02:13:06;;;;;;;6.27;1.50;;;;;;;14.47;75.55;95581.13;5038487;28;20206;-81
2022/05/29 02:15:41;;;;;;;2.80;1.60;;;;;;;14.37;76.50;95569.16;5033647;28;20236;-82
2022/05/29 02:18:17;;;;;;;2.77;1.50;;;;;;;14.44;76.97;95579.78;5041070;28;20217;-81
2022/05/29 02:20:50;;;;;;;2.97;1.40;;;;;;;14.44;78.20;95574.34;5042144;28;20244;-81
2022/05/29 02:23:24;;;;;;;2.43;1.70;;;;;;;14.46;78.29;95566.72;5038096;28;20336;-81
2022/05/29 02:25:53;;;;;;;3.20;1.40;;;;;;;14.42;79.89;95567.56;5034128;28;20206;-81
2022/05/29 02:28:28;;;;;;;1.77;1.50;;;;;;;14.35;77.05;95551.53;5035653;28;20225;-81
2022/05/29 02:31:08;;;;;;;5.67;1.80;;;;;;;14.37;78.24;95560.22;5043472;28;20292;-80
2022/05/29 02:33:44;;;;;;;3.00;1.60;;;;;;;14.38;73.48;95557.22;5041484;28;20209;-81
2022/05/29 02:36:23;;;;;;;2.20;1.40;;;;;;;14.42;74.79;95553.97;5038214;28;20279;-81
2022/05/29 02:39:07;;;;;;;3.70;1.50;;;;;;;14.48;72.96;95563.75;5034895;28;20226;-81
2022/05/29 02:41:46;;;;;;;4.13;1.53;;;;;;;14.48;71.84;95555.59;5050052;28;20260;-81
2022/05/29 02:44:21;;;;;;;2.73;1.63;;;;;;;14.41;74.14;95558.59;5040256;28;20239;-82
2022/05/29 02:46:54;;;;;;;4.37;1.70;;;;;;;14.31;74.58;95543.09;5036567;28;20194;-81
2022/05/29 02:49:31;;;;;;;1.97;1.57;;;;;;;14.31;74.80;95547.72;5042234;28;20269;-82
2022/05/29 02:52:01;;;;;;;1.90;1.33;;;;;;;14.34;75.18;95561.56;5039992;28;20209;-82
2022/05/29 02:54:31;;;;;;;3.57;1.47;;;;;;;14.22;74.22;95546.63;5042528;28;20211;-83
2022/05/29 02:57:00;;;;;;;5.13;1.60;;;;;;;14.23;75.08;95557.22;5054574;28;20214;-82
2022/05/29 02:59:31;;;;;;;2.60;1.50;;;;;;;14.25;72.99;95560.50;5040702;28;20207;-82
2022/05/29 03:02:08;;;;;;;2.50;1.67;;;;;;;14.29;72.41;95550.69;5056047;28;20248;-80
2022/05/29 03:04:48;;;;;;;3.47;1.73;;;;;;;14.29;71.07;95542.53;5043513;28;20228;-82
2022/05/29 03:07:26;;;;;;;5.13;1.67;;;;;;;14.27;71.68;95542.03;5044122;28;20294;-83
2022/05/29 03:10:03;;;;;;;5.30;1.77;;;;;;;14.23;72.05;95540.94;5042585;28;20222;-80
2022/05/29 03:12:39;;;;;;;5.87;1.60;;;;;;;14.22;71.79;95544.72;5040828;28;20214;-84
2022/05/29 03:15:22;;;;;;;3.63;1.40;;;;;;;14.21;70.88;95542.28;5034985;28;20202;-83
2022/05/29 03:17:59;;;;;;;3.63;1.67;;;;;;;14.14;71.94;95542.56;5040362;28;20228;-81
2022/05/29 03:20:38;;;;;;;3.70;1.57;;;;;;;14.10;71.91;95529.81;5038415;28;20205;-81
2022/05/29 03:23:11;;;;;;;2.67;1.40;;;;;;;14.12;72.63;95549.38;5036277;28;20210;-81
2022/05/29 03:25:42;;;;;;;5.27;1.70;;;;;;;14.10;71.42;95540.69;5041296;28;20231;-80
2022/05/29 03:28:18;;;;;;;4.00;1.40;;;;;;;14.11;72.13;95542.31;5032139;28;20210;-81
2022/05/29 03:30:49;;;;;;;2.13;1.40;;;;;;;14.09;72.11;95550.72;5059111;28;20202;-81
2022/05/29 03:33:19;;;;;;;2.27;1.57;;;;;;;14.11;71.49;95551.25;5033736;28;20206;-82
2022/05/29 03:36:03;;;;;;;3.83;1.30;;;;;;;14.09;72.16;95548.00;5039653;28;20274;-80
2022/05/29 03:38:30;;;;;;;4.40;1.67;;;;;;;14.06;72.48;95550.44;5037389;28;20277;-81
2022/05/29 03:40:57;;;;;;;2.80;1.50;;;;;;;14.00;72.75;95541.50;5041225;28;20216;-81
2022/05/29 03:43:24;;;;;;;3.80;1.57;;;;;;;14.08;72.14;95542.84;5041837;28;20301;-81
2022/05/29 03:45:52;;;;;;;3.23;1.70;;;;;;;14.01;73.40;95541.22;5040642;28;20232;-81
2022/05/29 03:48:20;;;;;;;5.07;1.70;;;;;;;13.99;73.58;95540.66;5040809;28;20463;-81
2022/05/29 03:50:47;;;;;;;2.57;1.70;;;;;;;13.99;73.34;95537.13;5042060;28;20202;-82
2022/05/29 03:53:14;;;;;;;3.80;1.63;;;;;;;13.95;73.26;95538.78;5043583;28;20297;-82
2022/05/29 03:55:41;;;;;;;3.20;1.50;;;;;;;13.90;73.01;95536.03;5045817;28;20280;-84
2022/05/29 03:58:08;;;;;;;2.30;1.43;;;;;;;13.86;73.78;95534.97;5038818;28;20206;-80
2022/05/29 04:00:35;;;;;;;5.40;1.67;;;;;;;13.84;74.00;95543.38;5029711;28;20202;-80
2022/05/29 04:03:03;;;;;;;3.50;1.40;;;;;;;13.82;73.71;95545.53;5043487;28;20210;-83
2022/05/29 04:05:32;;;;;;;3.30;1.80;;;;;;;13.83;73.90;95549.06;5037963;28;20214;-80
2022/05/29 04:13:33;;;;;;;6.13;1.67;;;;;;;13.62;73.99;95549.03;5041172;28;20202;-81
2022/05/29 04:16:00;;;;;;;4.43;1.70;;;;;;;13.57;74.31;95548.22;5054268;28;20280;-82
2022/05/29 04:18:28;;;;;;;3.13;1.60;;;;;;;13.55;74.38;95553.91;5042818;28;20199;-80
2022/05/29 04:20:56;;;;;;;7.07;1.50;;;;;;;13.45;75.25;95551.16;5035257;28;20229;-81
2022/05/29 04:23:23;;;;;;;3.70;1.77;;;;;;;13.55;74.79;95559.34;5040880;28;20221;-81
2022/05/29 04:25:51;;;;;;;2.10;1.67;;;;;;;13.42;75.63;95557.13;5038451;28;20308;-82
2022/05/29 04:28:18;;;;;;;1.83;1.60;;;;;;;13.49;75.17;95563.13;5034547;28;20203;-81
2022/05/29 04:30:46;;;;;;;2.97;1.40;;;;;;;13.36;75.98;95551.94;5031586;28;20211;-82
2022/05/29 04:33:13;;;;;;;2.80;1.50;;;;;;;13.39;76.13;95549.53;5032157;28;20309;-82
2022/05/29 04:35:42;;;;;;;3.50;1.60;;;;;;;13.41;76.46;95555.50;5040438;28;20206;-81
2022/05/29 04:38:12;;;;;;;4.17;1.60;;;;;;;13.38;76.37;95572.31;5057418;28;20206;-81
2022/05/29 04:40:40;;;;;;;3.80;1.57;;;;;;;13.37;75.62;95573.38;5037566;28;20260;-82
2022/05/29 04:43:07;;;;;;;3.17;1.63;;;;;;;13.38;75.94;95572.31;5029844;28;20229;-82
2022/05/29 04:45:35;;;;;;;3.30;1.70;;;;;;;13.33;75.41;95566.06;5042629;28;20232;-80
2022/05/29 04:48:02;;;;;;;4.97;1.83;;;;;;;13.33;75.99;95571.47;5052296;28;20256;-81
2022/05/29 04:50:29;;;;;;;4.40;1.80;;;;;;;13.36;76.25;95574.47;5039359;28;20211;-81
2022/05/29 04:52:56;;;;;;;3.37;1.53;;;;;;;13.28;76.93;95577.69;5055245;28;20206;-80
2022/05/29 04:55:25;;;;;;;4.20;1.80;;;;;;;13.21;77.32;95567.09;5039390;28;20220;-82
2022/05/29 04:57:52;;;;;;;2.07;1.40;;;;;;;13.21;77.50;95572.50;5052620;28;20214;-81
2022/05/29 05:00:20;;;;;;;3.20;1.50;;;;;;;13.14;77.37;95580.09;5043477;28;20210;-82
2022/05/29 05:02:47;;;;;;;5.20;1.50;;;;;;;13.12;77.86;95571.34;5040290;28;20225;-84
2022/05/29 05:05:15;;;;;;;4.60;1.60;;;;;;;13.16;77.66;95574.41;5033797;28;20233;-80
2022/05/29 05:07:42;;;;;;;4.57;1.60;;;;;;;13.21;76.55;95571.69;5028034;28;20230;-81
2022/05/29 05:10:15;;;;;;;4.50;1.50;;;;;;;13.27;77.43;95580.69;5033816;28;20215;-81
2022/05/29 05:12:44;;;;;;;3.03;1.70;;;;;;;13.25;77.20;95570.09;5033584;28;20211;-80
2022/05/29 05:15:14;;;;;;;4.47;1.57;;;;;;;13.20;78.08;95570.06;5029293;28;20675;-81
2022/05/29 05:17:42;;;;;;;2.83;1.60;;;;;;;13.18;78.29;95569.53;5030512;28;20203;-84
2022/05/29 05:20:10;;;;;;;4.50;1.90;;;;;;;13.20;78.26;95568.16;5053184;28;20201;-81
2022/05/29 05:22:38;;;;;;;4.03;1.83;;;;;;;13.17;78.71;95571.44;5058434;28;20300;-81
2022/05/29 05:25:06;;;;;;;4.57;1.63;;;;;;;13.08;78.74;95561.34;5027394;28;20242;-82
2022/05/29 05:27:33;;;;;;;3.50;1.80;;;;;;;13.18;79.47;95574.97;5031267;28;20206;-81
2022/05/29 05:30:02;;;;;;;2.77;1.50;;;;;;;13.16;78.88;95579.81;5046793;28;20209;-81
2022/05/29 05:32:29;;;;;;;2.57;1.63;;;;;;;13.14;79.56;95576.56;5041041;28;20293;-81
2022/05/29 05:34:56;;;;;;;3.60;1.60;;;;;;;13.11;79.50;95571.63;5029040;28;20226;-81
2022/05/29 05:37:23;;;;;;;4.17;1.73;;;;;;;13.10;79.53;95576.22;5048720;28;20240;-82
2022/05/29 05:39:52;;;;;;;3.07;1.67;;;;;;;13.05;79.76;95573.50;5032633;28;20233;-82
2022/05/29 05:42:19;;;;;;;6.30;1.80;;;;;;;13.09;79.84;95576.50;5051758;28;20229;-81
2022/05/29 05:44:48;;;;;;;4.33;1.80;;;;;;;13.12;79.85;95578.69;5045703;28;20218;-82
2022/05/29 05:47:20;;;;;;;3.60;1.60;;;;;;;13.06;80.28;95571.59;5032037;28;20257;-82
2022/05/29 05:49:47;;;;;;;3.47;1.57;;;;;;;13.08;80.25;95580.31;5047744;28;20217;-81
2022/05/29 05:52:14;;;;;;;3.97;1.80;;;;;;;12.95;79.09;95569.94;5052359;28;20202;-81
2022/05/29 05:54:41;;;;;;;4.03;1.73;;;;;;;12.98;79.32;95578.34;5047188;28;20263;-84
2022/05/29 05:57:09;;;;;;;5.10;1.80;;;;;;;13.05;79.64;95580.81;5036000;28;20368;-81
2022/05/29 05:59:37;;;;;;;3.33;1.90;;;;;;;13.07;80.13;95589.50;5038709;28;20230;-84
2022/05/29 06:02:05;;;;;;;4.27;2.00;;;;;;;13.02;80.60;95581.34;5039437;28;20205;-80
2022/05/29 06:04:33;;;;;;;7.30;2.00;;;;;;;13.05;80.18;95587.06;5052657;28;20212;-81
2022/05/29 06:07:00;;;;;;;2.13;1.63;;;;;;;13.03;80.18;95591.09;5041252;28;20199;-82
2022/05/29 06:09:27;;;;;;;6.57;2.03;;;;;;;13.07;80.10;95586.78;5039251;28;20214;-81
2022/05/29 06:11:54;;;;;;;4.10;1.80;;;;;;;13.08;80.41;95591.13;5053347;28;20284;-85
2022/05/29 06:14:21;;;;;;;3.50;1.70;;;;;;;13.17;79.74;95590.41;5051206;28;20202;-82
2022/05/29 06:16:48;;;;;;;3.90;1.73;;;;;;;13.08;80.48;95588.44;5038875;28;20262;-83
2022/05/29 06:19:16;;;;;;;6.23;1.90;;;;;;;13.08;80.80;95599.28;5033412;28;20290;-81
2022/05/29 06:21:44;;;;;;;3.70;1.80;;;;;;;13.04;80.95;95590.03;5038275;28;20214;-81
2022/05/29 06:24:11;;;;;;;3.77;1.80;;;;;;;12.97;81.91;95594.88;5039492;28;20301;-82
2022/05/29 06:26:38;;;;;;;5.20;1.70;;;;;;;13.12;81.45;95595.75;5036603;28;20228;-81
2022/05/29 06:29:06;;;;;;;3.80;1.90;;;;;;;13.07;81.94;95594.94;5037566;28;20216;-82
2022/05/29 06:31:33;;;;;;;2.93;1.80;;;;;;;13.03;81.75;95597.34;5042250;28;20203;-81
2022/05/29 06:34:00;;;;;;;3.17;1.80;;;;;;;13.04;81.60;95598.97;5052997;28;20301;-82
2022/05/29 06:36:27;;;;;;;5.17;1.93;;;;;;;13.01;81.86;95599.53;5036334;28;20210;-81
2022/05/29 06:38:58;;;;;;;3.70;2.00;;;;;;;13.03;82.02;95594.63;5040390;28;20234;-82
2022/05/29 06:41:27;;;;;;;2.60;1.70;;;;;;;13.03;82.34;95593.81;5043815;28;20205;-81
2022/05/29 06:43:54;;;;;;;3.30;1.90;;;;;;;13.07;82.73;95597.63;5036587;28;20213;-81
2022/05/29 06:46:21;;;;;;;4.57;2.10;;;;;;;13.09;82.42;95596.31;5053351;28;20218;-82
2022/05/29 06:48:49;;;;;;;3.70;2.07;;;;;;;13.12;82.31;95589.53;5036138;28;20269;-80
2022/05/29 06:51:21;;;;;;;4.17;1.73;;;;;;;13.13;81.25;95591.16;5039370;28;20297;-81
2022/05/29 06:53:49;;;;;;;5.30;1.97;;;;;;;13.08;80.47;95589.25;5036530;28;20238;-80
2022/05/29 06:56:18;;;;;;;3.77;1.90;;;;;;;13.13;80.64;95592.00;5042525;28;20298;-81
2022/05/29 06:58:46;;;;;;;3.53;1.70;;;;;;;13.25;80.17;95591.78;5041843;28;20198;-81
2022/05/29 07:07:02;;;;;;;3.10;1.70;;;;;;;13.39;76.80;95603.75;5031997;28;20222;-80
2022/05/29 07:09:32;;;;;;;3.83;2.10;;;;;;;13.47;77.97;95607.84;5037406;28;20278;-81
2022/05/29 07:12:06;;;;;;;3.73;1.97;;;;;;;13.51;78.18;95612.50;5042125;28;20291;-81
2022/05/29 07:14:36;;;;;;;3.70;1.83;;;;;;;13.54;76.46;95606.50;5042145;28;20213;-80
2022/05/29 07:17:04;;;;;;;3.50;1.60;;;;;;;13.60;75.95;95602.75;5041591;28;20228;-82
2022/05/29 07:19:31;;;;;;;4.43;2.00;;;;;;;13.57;74.76;95611.41;5036268;28;20314;-81
2022/05/29 07:21:59;;;;;;;5.00;1.97;;;;;;;13.77;74.73;95604.44;5039489;28;20225;-82
2022/05/29 07:24:27;;;;;;;3.27;1.73;;;;;;;13.71;75.36;95605.47;5034420;28;20664;-80
2022/05/29 07:26:54;;;;;;;5.40;2.00;;;;;;;13.75;75.34;95604.69;5036368;28;20226;-82
2022/05/29 07:29:23;;;;;;;4.10;2.00;;;;;;;13.89;75.26;95597.66;5047429;28;20213;-81
2022/05/29 07:31:51;;;;;;;4.30;1.80;;;;;;;13.99;75.00;95603.09;5029918;28;20218;-83
2022/05/29 07:34:19;;;;;;;2.70;2.10;;;;;;;13.95;74.83;95603.91;5032744;28;20260;-80
2022/05/29 07:36:47;;;;;;;4.90;2.07;;;;;;;13.91;74.66;95603.63;5037983;28;20249;-80
2022/05/29 07:39:14;;;;;;;2.77;1.73;;;;;;;14.16;74.94;95608.25;5027123;28;20245;-81
2022/05/29 07:44:28;;;;;;;3.87;1.97;;;;;;;14.11;74.91;95608.28;5042881;28;20262;-81
2022/05/29 07:46:55;;;;;;;3.20;2.03;;;;;;;14.17;74.11;95607.19;5030494;28;20229;-81
2022/05/29 07:49:22;;;;;;;6.13;2.17;;;;;;;14.09;75.11;95609.63;5031557;28;20221;-80
2022/05/29 07:51:50;;;;;;;3.03;1.80;;;;;;;14.15;74.75;95613.97;5054850;28;20206;-81
2022/05/29 07:54:17;;;;;;;5.13;2.23;;;;;;;14.13;73.44;95610.69;5048217;28;20218;-81
2022/05/29 07:56:44;;;;;;;3.73;1.70;;;;;;;14.12;73.41;95612.59;5037690;28;20218;-79
2022/05/29 07:59:14;;;;;;;2.60;1.70;;;;;;;14.15;73.64;95603.09;5041881;28;20202;-80
2022/05/29 08:01:42;;;;;;;3.50;2.13;;;;;;;14.17;73.49;95612.63;5055180;28;20289;-81
2022/05/29 08:04:10;;;;;;;3.20;1.73;;;;;;;14.19;73.64;95610.44;5030349;28;20207;-81
2022/05/29 08:06:37;;;;;;;2.20;1.80;;;;;;;14.18;73.04;95613.44;4996150;28;20241;-82
2022/05/29 08:09:04;;;;;;;2.93;1.70;;;;;;;14.19;74.00;95605.03;5018229;28;20207;-82
2022/05/29 08:11:31;;;;;;;3.10;2.10;;;;;;;14.18;75.63;95611.53;5023995;28;20233;-81
2022/05/29 08:14:00;;;;;;;2.50;2.03;;;;;;;14.40;74.52;95605.84;5025141;28;20225;-82
2022/05/29 08:16:27;;;;;;;4.00;1.93;;;;;;;14.43;73.89;95610.75;5030835;28;20239;-81
2022/05/29 08:18:55;;;;;;;3.10;1.90;;;;;;;14.36;73.48;95605.56;5019240;28;20199;-80
2022/05/29 08:21:22;;;;;;;3.17;1.70;;;;;;;14.48;72.01;95607.22;5031649;28;20217;-82
2022/05/29 08:31:59;;;;;;;2.30;1.80;;;;;;;14.51;74.09;95590.38;5019220;28;20210;-82
2022/05/29 08:34:27;;;;;;;4.23;1.90;;;;;;;14.53;73.58;95596.34;5015703;28;20210;-81
2022/05/29 08:36:55;;;;;;;4.00;1.90;;;;;;;14.63;73.88;95596.34;5021696;28;20294;-82
2022/05/29 08:39:22;;;;;;;6.23;2.30;;;;;;;14.63;73.88;95596.34;5019529;28;20239;-80
2022/05/29 08:41:52;;;;;;;4.40;1.70;;;;;;;14.51;72.67;95593.91;5013077;28;20262;-82
2022/05/29 08:44:29;;;;;;;2.60;1.80;;;;;;;14.52;72.96;95594.72;5018749;28;20207;-80
2022/05/29 08:47:01;;;;;;;5.07;2.10;;;;;;;14.48;73.65;95589.00;5021654;28;20229;-85
2022/05/29 08:49:33;;;;;;;4.63;2.30;;;;;;;14.64;73.03;95595.22;5014368;28;20208;-81
2022/05/29 08:52:09;;;;;;;3.70;1.77;;;;;;;14.76;73.21;95598.50;5027868;28;20214;-81
2022/05/29 08:54:48;;;;;;;4.33;2.00;;;;;;;14.81;72.04;95587.59;5015143;28;20202;-80
2022/05/29 08:57:29;;;;;;;5.93;2.07;;;;;;;14.87;71.86;95594.66;5017816;28;20211;-82
2022/05/29 08:59:59;;;;;;;4.87;2.23;;;;;;;14.95;71.51;95599.53;5025200;28;20203;-81
2022/05/29 09:02:37;;;;;;;5.27;2.03;;;;;;;14.96;72.31;95601.19;5016900;28;20213;-81
2022/05/29 09:05:12;;;;;;;3.97;1.77;;;;;;;14.86;69.92;95595.75;5021119;28;20220;-80
2022/05/29 09:07:42;;;;;;;2.53;1.60;;;;;;;14.82;70.94;95591.13;5019499;28;20210;-80
2022/05/29 09:10:16;;;;;;;3.00;1.90;;;;;;;14.86;70.57;95586.78;5037506;28;20213;-81
2022/05/29 09:12:48;;;;;;;2.13;1.57;;;;;;;14.84;70.98;95589.78;5021191;28;20255;-80
2022/05/29 09:15:19;;;;;;;7.07;2.30;;;;;;;14.95;73.26;95585.94;5022276;28;20202;-81
2022/05/29 09:17:51;;;;;;;2.83;1.70;;;;;;;14.84;70.90;95591.69;5015141;28;20287;-81
2022/05/29 09:20:28;;;;;;;4.50;1.93;;;;;;;14.84;70.10;95591.69;5038515;28;20294;-83
2022/05/29 09:22:57;;;;;;;6.07;2.10;;;;;;;14.90;69.08;95596.81;5018105;28;20201;-81
2022/05/29 09:25:30;;;;;;;3.53;1.80;;;;;;;15.01;68.83;95595.72;5016978;28;20214;-80
2022/05/29 09:28:01;;;;;;;8.00;2.37;;;;;;;15.07;68.74;95583.72;5025862;28;20221;-80
2022/05/29 09:30:29;;;;;;;4.93;2.07;;;;;;;15.21;70.16;95583.97;5022474;28;20233;-82
2022/05/29 09:33:00;;;;;;;3.43;2.00;;;;;;;15.33;69.51;95580.91;5026156;28;20198;-80
2022/05/29 09:35:36;;;;;;;2.93;1.90;;;;;;;15.44;68.14;95583.31;5023165;28;20301;-82
2022/05/29 09:38:12;;;;;;;3.57;1.90;;;;;;;15.64;68.10;95577.00;5025652;28;20211;-81
2022/05/29 09:41:18;;;;;;;3.80;2.60;;;;;;;15.71;67.75;95576.69;5121626;27;20594;-80
2022/05/29 09:44:09;;;;;;;3.27;2.00;;;;;;;15.83;64.87;95575.22;5124363;27;20199;-80
2022/05/29 09:46:38;;;;;;;3.80;1.83;;;;;;;16.12;63.85;95574.50;5119731;27;20211;-80
2022/05/29 09:52:11;;;;;;;2.80;1.80;;;;;;;16.41;63.80;95580.00;5119597;27;20211;-82
2022/05/29 09:54:43;;;;;;;3.77;1.90;;;;;;;16.33;63.65;95569.72;5122775;27;20229;-81
2022/05/29 09:57:24;;;;;;;4.97;2.00;;;;;;;16.09;65.42;95569.59;5135186;27;20208;-81
2022/05/29 09:59:58;;;;;;;3.90;2.20;;;;;;;15.98;64.83;95571.59;5111144;28;20231;-81
2022/05/29 10:02:28;;;;;;;6.17;2.20;;;;;;;16.00;64.06;95571.31;5122927;27;20219;-82
2022/05/29 10:04:59;;;;;;;4.67;2.27;;;;;;;15.94;65.92;95559.66;5122897;27;20200;-81
2022/05/29 10:07:36;;;;;;;2.63;1.83;;;;;;;15.97;65.22;95569.16;5131172;27;20256;-81
2022/05/29 10:10:08;;;;;;;4.10;2.37;;;;;;;15.98;64.69;95566.16;5119965;27;20207;-81
2022/05/29 10:12:46;;;;;;;3.80;1.70;;;;;;;15.86;64.71;95562.97;5114031;27;20222;-80
2022/05/29 10:15:29;;;;;;;2.23;1.70;;;;;;;15.87;66.27;95559.97;5115003;27;20223;-81
2022/05/29 10:18:01;;;;;;;3.63;1.63;;;;;;;15.88;64.58;95564.31;5104563;28;20235;-81
2022/05/29 10:20:31;;;;;;;4.83;2.00;;;;;;;15.88;66.57;95560.78;5113831;27;20211;-81
2022/05/29 10:23:06;;;;;;;1.90;1.53;;;;;;;15.94;64.88;95558.81;5125000;27;20302;-81
2022/05/29 10:25:35;;;;;;;4.20;1.90;;;;;;;15.92;63.96;95555.56;5105897;28;20207;-82
2022/05/29 10:28:12;;;;;;;2.10;1.60;;;;;;;15.81;62.47;95549.41;5105517;28;20215;-81
2022/05/29 10:30:45;;;;;;;4.87;2.20;;;;;;;15.75;63.85;95555.94;5123264;28;20260;-81
2022/05/29 10:33:19;;;;;;;3.47;1.90;;;;;;;15.83;62.80;95564.34;5120990;28;20277;-81
2022/05/29 10:35:48;;;;;;;5.20;2.23;;;;;;;15.93;62.56;95562.66;5118133;27;20280;-84
2022/05/29 10:38:24;;;;;;;4.13;1.70;;;;;;;16.00;61.23;95553.06;5118470;27;20204;-81
2022/05/29 10:40:53;;;;;;;3.00;1.80;;;;;;;16.00;60.75;95553.06;5120524;27;20236;-80
2022/05/29 10:43:41;;;;;;;5.30;1.90;;;;;;;15.94;60.13;95559.66;5116459;28;20227;-83
2022/05/29 10:46:15;;;;;;;3.77;1.90;;;;;;;15.87;60.98;95565.41;5118408;28;20211;-81
2022/05/29 10:49:19;;;;;;;2.63;1.57;;;;;;;16.07;60.46;95552.75;5113096;27;20210;-84
2022/05/29 10:52:02;;;;;;;2.57;1.97;;;;;;;15.88;60.62;95544.44;5111005;27;20205;-80
2022/05/29 10:54:49;;;;;;;2.93;1.83;;;;;;;16.00;60.78;95541.34;5106628;27;20228;-81
2022/05/29 10:57:32;;;;;;;4.67;1.80;;;;;;;16.07;60.99;95544.59;5110113;27;20204;-80
2022/05/29 11:00:10;;;;;;;4.47;1.87;;;;;;;16.10;60.22;95552.97;5105412;27;20344;-80
2022/05/29 11:03:21;;;;;;;3.93;1.60;;;;;;;16.20;59.15;95546.66;5096916;28;20204;-81
2022/05/29 11:06:09;;;;;;;5.23;1.90;;;;;;;16.14;60.17;95548.59;5099794;28;20249;-81
2022/05/29 11:08:46;;;;;;;4.47;2.10;;;;;;;16.31;60.51;95540.03;5108672;28;20200;-80
2022/05/29 11:11:31;;;;;;;4.53;1.70;;;;;;;16.52;60.49;95538.72;5107218;27;20207;-82
2022/05/29 11:14:11;;;;;;;4.60;2.00;;;;;;;16.69;60.07;95545.69;5100572;27;20297;-82
2022/05/29 11:16:52;;;;;;;2.50;1.73;;;;;;;16.78;59.00;95549.41;5104707;28;20227;-80
2022/05/29 11:19:46;;;;;;;8.10;2.17;;;;;;;16.82;56.92;95542.28;5107102;28;20234;-83
2022/05/29 11:22:23;;;;;;;2.93;1.67;;;;;;;16.74;56.97;95540.19;5090474;28;20205;-81
2022/05/29 11:25:06;;;;;;;3.83;1.80;;;;;;;16.60;54.38;95540.81;5102751;27;20269;-81
2022/05/29 11:28:06;;;;;;;8.10;2.10;;;;;;;16.56;56.93;95534.34;5097226;27;20211;-81
2022/05/29 11:30:47;;;;;;;3.63;1.60;;;;;;;16.57;57.30;95530.53;5105164;28;20269;-82
2022/05/29 11:33:36;;;;;;;3.40;1.67;;;;;;;16.64;54.90;95536.47;5094455;28;20230;-80
2022/05/29 11:36:19;;;;;;;2.13;1.40;;;;;;;16.62;56.14;95522.31;5101919;28;20204;-82
2022/05/29 11:39:08;;;;;;;4.93;1.70;;;;;;;16.60;58.05;95526.38;5105722;28;20212;-81
2022/05/29 11:41:40;;;;;;;7.20;1.90;;;;;;;16.51;55.32;95528.91;5101971;28;20307;-82
2022/05/29 11:44:20;;;;;;;2.50;1.67;;;;;;;16.54;54.74;95520.19;5097259;27;20232;-81
2022/05/29 11:52:34;;;;;;;4.20;1.80;;;;;;;16.79;53.89;95524.59;5099944;28;20204;-82
2022/05/29 11:55:08;;;;;;;6.60;2.10;;;;;;;16.97;54.31;95523.84;5106920;28;20208;-81
2022/05/29 11:57:44;;;;;;;2.33;1.53;;;;;;;17.08;53.71;95519.09;5106060;28;20295;-81
2022/05/29 12:00:23;;;;;;;5.10;1.60;;;;;;;17.03;52.73;95521.84;5103337;28;20219;-81
2022/05/29 12:02:59;;;;;;;2.37;1.60;;;;;;;17.03;52.86;95517.22;5109166;27;20208;-83
2022/05/29 12:05:33;;;;;;;2.70;1.60;;;;;;;17.03;52.10;95516.41;5124095;27;20206;-82
2022/05/29 12:08:09;;;;;;;5.63;2.00;;;;;;;17.05;52.24;95516.13;5109799;27;20212;-84
2022/05/29 12:10:50;;;;;;;6.67;2.17;;;;;;;17.05;52.56;95516.13;5099054;27;20208;-82
2022/05/29 12:13:20;;;;;;;3.90;1.97;;;;;;;17.09;52.25;95507.06;5099908;28;20232;-82
2022/05/29 12:15:55;;;;;;;4.80;1.63;;;;;;;17.21;53.45;95507.44;5099818;28;20224;-81
2022/05/29 12:18:25;;;;;;;4.53;1.70;;;;;;;17.30;51.01;95505.69;5093837;27;20200;-79
2022/05/29 12:20:57;;;;;;;3.30;1.70;;;;;;;17.36;52.19;95501.78;5109678;27;20216;-80
2022/05/29 12:23:38;;;;;;;6.23;2.37;;;;;;;17.20;52.17;95510.47;5100364;27;20222;-80
2022/05/29 12:26:08;;;;;;;4.57;1.87;;;;;;;17.22;52.84;95506.34;5099627;27;20240;-84
2022/05/29 12:28:44;;;;;;;2.73;1.40;;;;;;;17.42;53.92;95501.75;5099232;27;20204;-81